Terminal Aerodrome Forecast
Issued by NWS Lake Charles, LA

Home | Current Version | Previous Version | Text Only | Print | Product List | Glossary On
Versions: 1 2 3 4 5 6 7 8 9 10 11 12 13
000
FTUS44 KLCH 181700
TAFBPT
TAF
KBPT 181738Z 1818/1918 23004KT 5SM -RA BR VCTS SCT050CB OVC080
      TEMPO 1818/1822 1SM +SHRA BKN015 OVC040
     FM190000 09004KT P6SM VCSH SCT025 OVC050
     FM190900 VRB03KT 5SM BR BKN007 OVC100
     FM191400 09006KT P6SM SCT015 BKN080=

USA.gov is the U.S. government's official web portal to all federal, state and local government web resources and services.